createdAt,value
2019-05-01T00:06:01.916Z,52.27
2019-05-01T00:08:38.312Z,57.23
2019-05-01T00:11:05.906Z,58.97
2019-05-01T00:13:48.664Z,58.97
2019-05-01T00:16:24.609Z,55.93
2019-05-01T00:19:06.889Z,60.80
2019-05-01T00:21:43.112Z,53.07
2019-05-01T00:24:25.450Z,60.90
2019-05-01T00:27:01.593Z,57.67
2019-05-01T00:29:44.348Z,64.33
2019-05-01T00:32:20.774Z,54.15
2019-05-01T00:35:04.011Z,54.23
2019-05-01T00:37:33.639Z,58.57
2019-05-01T00:40:15.820Z,60.73
2019-05-01T00:43:07.869Z,53.17
2019-05-01T00:45:44.017Z,49.80
2019-05-01T00:48:11.647Z,52.67
2019-05-01T00:50:47.977Z,72.27
2019-05-01T00:53:23.441Z,58.00
2019-05-01T00:55:51.697Z,54.03
2019-05-01T01:01:30.846Z,54.27
2019-05-01T01:04:15.393Z,50.15
2019-05-01T01:06:51.300Z,49.25
2019-05-01T01:09:33.778Z,54.15
2019-05-01T01:12:09.782Z,51.80
2019-05-01T01:14:52.036Z,49.35
2019-05-01T01:17:28.362Z,50.83
2019-05-01T01:20:11.796Z,57.10
2019-05-01T01:22:47.284Z,48.90
2019-05-01T01:25:29.364Z,57.75
2019-05-01T01:28:05.545Z,50.65
2019-05-01T01:30:33.234Z,55.75
2019-05-01T01:33:09.206Z,51.28
2019-05-01T01:35:45.302Z,53.25
2019-05-01T01:38:13.646Z,53.75
2019-05-01T01:40:57.700Z,50.05
2019-05-01T01:43:33.490Z,47.40
2019-05-01T01:46:16.737Z,50.90
2019-05-01T01:49:05.739Z,52.40
2019-05-01T01:51:48.830Z,50.15
2019-05-01T01:54:32.536Z,49.00
2019-05-01T01:57:15.710Z,44.42
2019-05-01T01:59:51.504Z,53.68
2019-05-01T02:02:42.374Z,49.75
2019-05-01T02:05:26.875Z,46.98
2019-05-01T02:08:02.755Z,45.75
2019-05-01T02:10:44.983Z,50.23
2019-05-01T02:13:39.864Z,49.33
2019-05-01T02:16:22.648Z,49.35
2019-05-01T02:18:58.850Z,45.43
2019-05-01T02:21:41.279Z,48.45
2019-05-01T02:24:17.071Z,46.68
2019-05-01T02:27:01.612Z,49.05
2019-05-01T02:29:45.035Z,44.00
2019-05-01T02:32:30.105Z,45.60
2019-05-01T02:35:07.131Z,46.98
2019-05-01T02:42:34.630Z,53.38
2019-05-01T02:45:17.031Z,45.03
2019-05-01T02:48:00.543Z,49.50
2019-05-01T02:50:38.345Z,53.73
2019-05-01T02:53:20.070Z,45.73
2019-05-01T02:56:26.692Z,51.10
2019-05-01T02:59:13.639Z,48.10
2019-05-01T03:01:46.913Z,51.85
2019-05-01T03:04:27.189Z,51.80
2019-05-01T03:07:11.251Z,52.83
2019-05-01T03:09:48.659Z,48.83
2019-05-01T03:12:33.352Z,48.50
2019-05-01T03:15:10.593Z,48.68
2019-05-01T03:17:53.701Z,56.28
2019-05-01T03:20:58.193Z,53.73
2019-05-01T03:23:59.158Z,50.98
2019-05-01T03:26:42.410Z,52.60
2019-05-01T03:29:18.311Z,54.65
2019-05-01T03:32:16.682Z,50.55
2019-05-01T03:34:39.287Z,48.95
2019-05-01T03:37:21.245Z,50.50
2019-05-01T03:39:57.187Z,47.15
2019-05-01T03:42:39.982Z,56.75
2019-05-01T03:45:22.968Z,53.45
2019-05-01T03:47:58.838Z,53.63
2019-05-01T03:50:34.391Z,60.88
2019-05-01T03:53:16.387Z,52.27
2019-05-01T03:55:52.661Z,58.25
2019-05-01T03:58:35.776Z,61.45
2019-05-01T04:01:33.629Z,55.75
2019-05-01T04:04:20.042Z,57.08
2019-05-01T04:06:55.761Z,55.10
2019-05-01T04:09:38.580Z,55.17
2019-05-01T04:12:14.804Z,56.25
2019-05-01T04:14:57.497Z,55.15
2019-05-01T04:17:44.887Z,48.38
2019-05-01T04:22:55.918Z,50.88
2019-05-01T04:25:38.478Z,57.78
2019-05-01T04:28:45.813Z,52.62
2019-05-01T04:31:50.214Z,59.60
2019-05-01T04:34:36.852Z,66.53
2019-05-01T04:39:48.662Z,55.92
2019-05-01T04:42:31.179Z,64.85
2019-05-01T04:45:07.420Z,67.58
2019-05-01T04:47:50.566Z,56.00
2019-05-01T04:50:26.263Z,61.83
2019-05-01T04:53:08.706Z,66.12
2019-05-01T04:55:44.289Z,67.65
2019-05-01T04:58:27.479Z,85.47
2019-05-01T05:01:03.116Z,86.70
2019-05-01T05:03:45.540Z,71.80
2019-05-01T05:06:21.378Z,93.45
2019-05-01T05:09:04.477Z,109.25
2019-05-01T05:11:49.768Z,94.95
2019-05-01T05:14:37.099Z,84.70
2019-05-01T05:17:28.508Z,100.60
2019-05-01T05:20:11.984Z,107.55
2019-05-01T05:22:47.475Z,108.70
2019-05-01T05:25:30.481Z,116.17
2019-05-01T05:28:06.438Z,116.10
2019-05-01T05:30:52.439Z,114.77
2019-05-01T05:33:29.627Z,119.57
2019-05-01T05:35:57.153Z,129.12
2019-05-01T05:38:59.263Z,136.97
2019-05-01T05:41:51.167Z,117.57
2019-05-01T05:44:33.573Z,129.40
2019-05-01T05:47:01.921Z,130.93
2019-05-01T05:49:46.250Z,127.55
2019-05-01T05:52:52.232Z,130.50
2019-05-01T05:55:37.527Z,147.85
2019-05-01T06:04:11.826Z,144.35
2019-05-01T06:07:01.832Z,149.20
2019-05-01T06:10:07.920Z,136.68
2019-05-01T06:13:05.578Z,138.25
2019-05-01T06:16:07.557Z,137.55
2019-05-01T06:19:04.966Z,142.47
2019-05-01T06:22:05.088Z,142.82
2019-05-01T06:24:43.024Z,152.75
2019-05-01T06:27:19.371Z,153.00
2019-05-01T06:30:01.891Z,130.45
2019-05-01T06:32:40.018Z,148.68
2019-05-01T06:38:21.862Z,145.72
2019-05-01T06:41:05.689Z,158.47
2019-05-01T06:44:02.405Z,146.50
2019-05-01T06:46:53.661Z,146.40
2019-05-01T06:49:48.108Z,158.90
2019-05-01T06:52:31.369Z,158.80
2019-05-01T06:55:07.290Z,159.87
2019-05-01T06:57:50.869Z,155.48
2019-05-01T07:00:27.032Z,162.88
2019-05-01T07:03:05.998Z,162.37
2019-05-01T07:08:24.019Z,150.85
2019-05-01T07:10:59.839Z,162.35
2019-05-01T07:13:40.006Z,153.07
2019-05-01T07:18:48.526Z,156.37
2019-05-01T07:24:00.592Z,151.05
2019-05-01T07:26:47.917Z,147.68
2019-05-01T07:29:22.969Z,146.53
2019-05-01T07:32:06.317Z,152.95
2019-05-01T07:34:42.517Z,151.10
2019-05-01T07:37:27.719Z,158.42
2019-05-01T07:40:05.421Z,162.72
2019-05-01T07:42:50.939Z,156.30
2019-05-01T07:46:02.347Z,166.07
2019-05-01T07:48:47.374Z,163.82
2019-05-01T07:51:15.813Z,162.40
2019-05-01T07:54:04.049Z,158.37
2019-05-01T07:56:50.088Z,174.60
2019-05-01T08:02:15.089Z,154.53
2019-05-01T08:04:58.264Z,151.63
2019-05-01T08:07:34.123Z,166.90
2019-05-01T08:12:45.125Z,154.45
2019-05-01T08:15:43.275Z,151.78
2019-05-01T08:18:30.469Z,161.97
2019-05-01T08:21:34.593Z,152.82
2019-05-01T08:24:02.243Z,154.90
2019-05-01T08:35:00.566Z,182.57
2019-05-01T08:37:42.703Z,181.53
2019-05-01T08:40:50.823Z,173.93
2019-05-01T08:43:33.848Z,177.93
2019-05-01T08:46:24.867Z,178.40
2019-05-01T08:49:11.384Z,195.40
2019-05-01T08:51:44.948Z,177.63
2019-05-01T08:56:58.196Z,189.30
2019-05-01T08:59:40.387Z,192.10
2019-05-01T09:02:16.774Z,187.33
2019-05-01T09:05:02.463Z,170.53
2019-05-01T09:07:39.535Z,176.77
2019-05-01T09:10:23.300Z,170.50
2019-05-01T09:12:59.162Z,187.53
2019-05-01T09:15:43.836Z,192.03
2019-05-01T09:18:20.499Z,168.70
2019-05-01T09:21:12.739Z,168.83
2019-05-01T09:23:51.590Z,175.47
2019-05-01T09:26:56.938Z,174.07
2019-05-01T09:29:39.827Z,171.20
2019-05-01T09:32:22.590Z,162.80
2019-05-01T09:34:58.487Z,159.77
2019-05-01T09:37:41.114Z,174.30
2019-05-01T09:40:18.138Z,146.10
2019-05-01T09:43:01.276Z,179.03
2019-05-01T09:45:37.490Z,174.83
2019-05-01T09:48:05.826Z,173.30
2019-05-01T09:50:42.742Z,167.60
2019-05-01T09:53:48.216Z,165.70
2019-05-01T09:59:07.436Z,166.57
2019-05-01T10:01:49.792Z,180.23
2019-05-01T10:04:30.134Z,180.07
2019-05-01T10:06:58.252Z,181.67
2019-05-01T10:09:40.814Z,187.07
2019-05-01T10:12:17.357Z,185.20
2019-05-01T10:14:59.822Z,188.40
2019-05-01T10:17:28.176Z,209.10
2019-05-01T10:19:56.471Z,210.47
2019-05-01T10:22:49.700Z,213.67
2019-05-01T10:25:25.254Z,199.77
2019-05-01T10:31:01.633Z,194.30
2019-05-01T10:33:41.417Z,167.53
2019-05-01T10:36:39.924Z,101.77
2019-05-01T10:39:22.445Z,148.23
2019-05-01T10:41:59.103Z,168.73
2019-05-01T10:44:43.132Z,174.77
2019-05-01T10:47:18.741Z,161.57
2019-05-01T10:50:01.785Z,166.73
2019-05-01T10:52:40.525Z,179.40
2019-05-01T10:55:08.283Z,158.60
2019-05-01T10:57:46.133Z,170.03
2019-05-01T11:00:29.000Z,184.13
2019-05-01T11:03:13.338Z,172.73
2019-05-01T11:05:56.403Z,173.50
2019-05-01T11:08:32.124Z,180.37
2019-05-01T11:11:15.329Z,172.23
2019-05-01T11:13:51.691Z,172.57
2019-05-01T11:16:34.343Z,181.50
2019-05-01T11:19:10.478Z,186.63
2019-05-01T11:21:38.197Z,199.30
2019-05-01T11:24:05.986Z,182.57
2019-05-01T11:26:51.107Z,174.33
2019-05-01T11:29:19.476Z,179.27
2019-05-01T11:32:13.215Z,193.27
2019-05-01T11:34:54.227Z,181.87
2019-05-01T11:37:54.363Z,184.63
2019-05-01T11:40:34.095Z,178.40
2019-05-01T11:43:17.148Z,190.53
2019-05-01T11:45:55.317Z,176.43
2019-05-01T11:48:38.312Z,179.30
2019-05-01T11:51:16.986Z,172.63
2019-05-01T11:54:02.393Z,188.00
2019-05-01T11:57:02.947Z,166.87
2019-05-01T11:59:49.069Z,173.57
2019-05-01T12:08:35.408Z,159.33
2019-05-01T12:11:19.377Z,167.40
2019-05-01T12:13:56.782Z,160.73
2019-05-01T12:16:58.677Z,162.50
2019-05-01T12:22:41.410Z,155.60
2019-05-01T12:25:30.455Z,168.90
2019-05-01T12:28:05.927Z,159.57
2019-05-01T12:30:54.606Z,169.13
2019-05-01T12:33:39.856Z,162.60
2019-05-01T12:36:18.757Z,160.87
2019-05-01T12:39:01.733Z,173.73
2019-05-01T12:41:36.537Z,176.50
2019-05-01T12:44:23.667Z,163.73
2019-05-01T12:47:16.214Z,168.73
2019-05-01T12:52:31.806Z,159.40
2019-05-01T12:55:23.379Z,164.93
2019-05-01T12:57:59.642Z,171.00
2019-05-01T13:00:49.913Z,168.13
2019-05-01T13:03:30.360Z,173.70
2019-05-01T13:06:14.475Z,162.47
2019-05-01T13:08:50.870Z,144.37
2019-05-01T13:14:01.480Z,158.47
2019-05-01T13:16:37.207Z,157.03
2019-05-01T13:19:20.152Z,151.97
2019-05-01T13:21:55.937Z,154.37
2019-05-01T13:29:45.437Z,155.17
2019-05-01T13:32:55.446Z,169.83
2019-05-01T13:35:38.766Z,151.70
2019-05-01T13:38:14.176Z,154.33
2019-05-01T13:40:57.432Z,163.60
2019-05-01T13:43:32.924Z,147.83
2019-05-01T13:46:15.669Z,165.33
2019-05-01T13:48:51.333Z,168.60
2019-05-01T13:51:36.355Z,170.53
2019-05-01T13:54:14.011Z,184.10
2019-05-01T13:59:24.211Z,190.50
2019-05-01T14:02:02.134Z,174.70
2019-05-01T14:04:45.932Z,164.17
2019-05-01T14:07:34.834Z,164.57
2019-05-01T14:10:11.841Z,181.43
2019-05-01T14:15:23.341Z,179.60
2019-05-01T14:18:12.107Z,176.87
2019-05-01T14:21:06.587Z,171.37
2019-05-01T14:24:00.631Z,181.90
2019-05-01T14:29:14.177Z,165.73
2019-05-01T14:31:55.994Z,168.90
2019-05-01T14:34:23.605Z,179.63
2019-05-01T14:36:58.851Z,177.20
2019-05-01T14:39:34.942Z,172.90
2019-05-01T14:42:03.338Z,158.60
2019-05-01T14:47:14.950Z,145.43
2019-05-01T14:49:57.787Z,147.53
2019-05-01T14:52:36.057Z,153.90
2019-05-01T14:55:19.347Z,145.40
2019-05-01T14:57:55.757Z,143.27
2019-05-01T15:05:25.095Z,135.87
2019-05-01T15:08:02.401Z,135.57
2019-05-01T15:15:50.972Z,128.30
2019-05-01T15:21:19.815Z,123.53
2019-05-01T15:23:55.855Z,126.30
2019-05-01T15:26:38.772Z,129.27
2019-05-01T15:29:15.659Z,125.27
2019-05-01T15:31:57.970Z,118.40
2019-05-01T15:34:34.216Z,116.00
2019-05-01T15:37:16.935Z,110.43
2019-05-01T15:39:58.167Z,109.23
2019-05-01T15:42:51.311Z,105.33
2019-05-01T15:45:27.189Z,107.90
2019-05-01T15:48:09.749Z,99.13
2019-05-01T15:50:46.557Z,100.20
2019-05-01T15:53:28.973Z,103.70
2019-05-01T15:56:05.164Z,99.30
2019-05-01T15:58:48.230Z,92.10
2019-05-01T16:01:24.933Z,84.43
2019-05-01T16:04:07.649Z,92.50
2019-05-01T16:06:44.291Z,89.73
2019-05-01T16:09:26.245Z,93.73
2019-05-01T16:12:38.058Z,83.97
2019-05-01T16:15:44.443Z,103.10
2019-05-01T16:18:20.337Z,835.73
2019-05-01T16:21:06.427Z,981.63
2019-05-01T16:23:43.168Z,1380.30
2019-05-01T16:26:25.120Z,1370.63
2019-05-01T16:29:01.187Z,1999.90
2019-05-01T16:36:41.264Z,1370.03
2019-05-01T16:42:29.425Z,161.83
2019-05-01T16:50:17.234Z,92.93
2019-05-01T16:52:54.123Z,85.07
2019-05-01T16:55:36.608Z,118.20
2019-05-01T16:58:14.963Z,156.57
2019-05-01T17:04:26.967Z,1999.90
2019-05-01T17:07:31.400Z,1999.90
2019-05-01T17:10:24.343Z,1999.90
2019-05-01T17:13:06.663Z,1999.90
2019-05-01T17:15:44.495Z,1999.90
2019-05-01T17:18:27.174Z,957.73
2019-05-01T17:21:04.846Z,121.10
2019-05-01T17:23:54.321Z,107.10
2019-05-01T17:26:30.339Z,103.23
2019-05-01T17:29:12.545Z,102.03
2019-05-01T17:31:49.016Z,102.03
2019-05-01T17:39:25.446Z,89.93
2019-05-01T17:42:02.213Z,87.77
2019-05-01T17:44:46.236Z,69.40
2019-05-01T17:47:17.852Z,74.00
2019-05-01T17:49:58.763Z,82.40
2019-05-01T17:52:48.723Z,64.53
2019-05-01T17:55:31.471Z,67.07
2019-05-01T17:58:13.831Z,77.83
2019-05-01T18:01:33.341Z,73.07
2019-05-01T18:04:28.354Z,92.17
2019-05-01T18:09:44.376Z,83.17
2019-05-01T18:12:28.384Z,77.03
2019-05-01T18:15:07.979Z,69.37
2019-05-01T18:17:51.461Z,74.10
2019-05-01T18:20:27.363Z,67.17
2019-05-01T18:23:42.851Z,75.53
2019-05-01T18:26:28.404Z,71.67
2019-05-01T18:29:20.898Z,73.80
2019-05-01T18:31:56.974Z,78.87
2019-05-01T18:34:39.576Z,69.70
2019-05-01T18:37:20.718Z,64.63
2019-05-01T18:44:59.370Z,85.23
2019-05-01T18:47:47.939Z,69.50
2019-05-01T18:50:30.304Z,76.40
2019-05-01T18:53:11.393Z,82.13
2019-05-01T18:58:20.740Z,79.00
2019-05-01T19:00:58.678Z,81.77
2019-05-01T19:03:42.386Z,86.73
2019-05-01T19:06:19.645Z,84.13
2019-05-01T19:11:29.249Z,174.53
2019-05-01T19:14:05.577Z,99.20
2019-05-01T19:16:49.028Z,110.70
2019-05-01T19:19:31.649Z,106.23
2019-05-01T19:22:08.211Z,105.30
2019-05-01T19:24:52.050Z,101.47
2019-05-01T19:27:27.639Z,93.83
2019-05-01T19:29:57.936Z,91.37
2019-05-01T19:32:43.157Z,93.30
2019-05-01T19:35:37.955Z,93.80
2019-05-01T19:38:13.995Z,90.90
2019-05-01T19:40:49.437Z,148.13
2019-05-01T19:43:35.880Z,134.63
2019-05-01T19:46:11.930Z,111.77
2019-05-01T19:48:59.057Z,94.80
2019-05-01T19:51:55.581Z,95.37
2019-05-01T19:54:37.839Z,103.03
2019-05-01T19:57:13.551Z,123.00
2019-05-01T19:59:56.431Z,146.13
2019-05-01T20:02:34.081Z,143.70
2019-05-01T20:07:51.193Z,99.80
2019-05-01T20:10:25.520Z,97.57
2019-05-01T20:15:26.993Z,73.73
2019-05-01T20:18:02.741Z,75.37
2019-05-01T20:20:46.043Z,81.37
2019-05-01T20:23:25.933Z,84.23
2019-05-01T20:28:34.452Z,92.50
2019-05-01T20:31:11.194Z,88.70
2019-05-01T20:33:54.841Z,98.40
2019-05-01T20:36:30.141Z,85.70
2019-05-01T20:39:13.143Z,91.23
2019-05-01T20:42:02.861Z,86.70
2019-05-01T20:47:14.263Z,90.90
2019-05-01T20:49:50.788Z,96.90
2019-05-01T20:52:35.266Z,96.73
2019-05-01T20:55:12.438Z,86.43
2019-05-01T20:57:55.708Z,84.87
2019-05-01T21:00:34.551Z,81.00
2019-05-01T21:05:49.654Z,85.17
2019-05-01T21:08:18.414Z,88.90
2019-05-01T21:11:11.135Z,83.13
2019-05-01T21:13:40.649Z,97.40
2019-05-01T21:16:24.101Z,93.83
2019-05-01T21:19:00.387Z,91.23
2019-05-01T21:21:43.440Z,95.80
2019-05-01T21:24:13.974Z,100.73
2019-05-01T21:26:57.695Z,79.40
2019-05-01T21:29:47.006Z,72.33
2019-05-01T21:35:01.109Z,86.50
2019-05-01T21:37:43.478Z,84.40
2019-05-01T21:40:13.902Z,77.47
2019-05-01T21:42:56.919Z,76.30
2019-05-01T21:45:33.230Z,85.10
2019-05-01T21:48:16.266Z,78.73
2019-05-01T21:50:53.717Z,79.87
2019-05-01T21:53:42.043Z,78.87
2019-05-01T21:56:07.684Z,87.67
2019-05-01T21:58:52.028Z,88.13
2019-05-01T22:01:38.040Z,91.20
2019-05-01T22:04:15.862Z,93.60
2019-05-01T22:06:58.231Z,90.47
2019-05-01T22:09:34.732Z,82.62
2019-05-01T22:12:17.722Z,72.10
2019-05-01T22:15:11.055Z,75.53
2019-05-01T22:17:58.135Z,68.60
2019-05-01T22:23:21.981Z,71.17
2019-05-01T22:26:07.806Z,70.47
2019-05-01T22:28:54.842Z,75.28
2019-05-01T22:31:38.031Z,69.47
2019-05-01T22:35:03.565Z,79.05
2019-05-01T22:40:16.594Z,83.90
2019-05-01T22:42:53.205Z,85.90
2019-05-01T22:50:29.753Z,83.50
2019-05-01T22:53:07.837Z,67.77
2019-05-01T22:55:49.888Z,72.47
2019-05-01T22:58:18.829Z,75.95
2019-05-01T23:01:04.067Z,80.35
2019-05-01T23:04:04.627Z,66.62
2019-05-01T23:06:49.911Z,72.95
2019-05-01T23:09:30.180Z,71.07
2019-05-01T23:12:16.183Z,79.85
2019-05-01T23:14:44.458Z,75.87
2019-05-01T23:17:12.795Z,74.42
2019-05-01T23:20:03.963Z,77.03
2019-05-01T23:22:28.683Z,90.07
2019-05-01T23:24:56.399Z,69.82
2019-05-01T23:27:38.807Z,70.32
2019-05-01T23:30:18.863Z,75.52
2019-05-01T23:33:01.911Z,79.20
2019-05-01T23:35:43.819Z,79.62
2019-05-01T23:38:19.397Z,75.12
2019-05-01T23:41:01.907Z,72.35
2019-05-01T23:43:37.879Z,68.07
2019-05-01T23:46:20.391Z,66.67
2019-05-01T23:48:56.757Z,72.05
2019-05-01T23:51:43.453Z,73.05
2019-05-01T23:54:20.444Z,72.60
2019-05-01T23:56:47.999Z,73.67
2019-05-01T23:59:30.895Z,66.33
